Time;durP1;ratioP1;P1;durP2;ratioP2;P2;SDS_P1;SDS_P2;PMS_P1;PMS_P2;Temp;Humidity;BMP_temperature;BMP_pressure;BME280_temperature;BME280_humidity;BME280_pressure;Samples;Min_cycle;Max_cycle;Signal;HPM_P1;HPM_P2
2023/05/10 00:00:51;;;;;;;26.17;16.77;;;;;;;11.96;100.00;100834.19;4956747;29;20032;-79
2023/05/10 00:03:16;;;;;;;24.27;16.05;;;;;;;12.01;100.00;100842.50;4956463;29;20112;-78
2023/05/10 00:05:42;;;;;;;25.92;17.27;;;;;;;11.87;100.00;100816.72;4956626;29;20042;-79
2023/05/10 00:08:07;;;;;;;24.27;17.02;;;;;;;11.88;100.00;100820.13;4955795;29;20150;-77
2023/05/10 00:10:32;;;;;;;26.90;18.50;;;;;;;11.98;100.00;100837.50;4956434;29;20027;-79
2023/05/10 00:12:58;;;;;;;26.50;17.60;;;;;;;11.98;100.00;100831.50;4956557;29;20395;-78
2023/05/10 00:15:23;;;;;;;29.48;18.95;;;;;;;11.97;100.00;100830.66;4956536;29;20035;-78
2023/05/10 00:17:49;;;;;;;30.02;19.42;;;;;;;11.87;100.00;100816.72;4956246;29;20034;-76
2023/05/10 00:20:14;;;;;;;32.20;20.58;;;;;;;11.97;100.00;100832.44;4956306;29;20112;-79
2023/05/10 00:22:39;;;;;;;30.77;19.65;;;;;;;11.96;100.00;100833.38;4956274;29;20505;-78
2023/05/10 00:25:05;;;;;;;31.33;20.20;;;;;;;11.96;100.00;100828.19;4955977;29;20035;-78
2023/05/10 00:27:31;;;;;;;33.05;20.30;;;;;;;11.91;100.00;100823.34;4956370;29;20031;-80
2023/05/10 00:29:56;;;;;;;32.10;19.25;;;;;;;11.93;100.00;100836.19;4956393;29;20494;-78
2023/05/10 00:32:21;;;;;;;33.58;20.65;;;;;;;11.82;100.00;100823.16;4956112;29;20035;-73
2023/05/10 00:34:47;;;;;;;31.23;20.15;;;;;;;11.86;100.00;100837.53;4955873;29;20074;-71
2023/05/10 00:37:12;;;;;;;29.27;19.35;;;;;;;11.82;100.00;100836.91;4956035;29;20102;-73
2023/05/10 00:39:37;;;;;;;32.60;21.65;;;;;;;11.77;100.00;100832.00;4955615;29;20062;-74
2023/05/10 00:42:04;;;;;;;32.33;21.25;;;;;;;11.73;100.00;100837.50;4956011;29;20435;-73
2023/05/10 00:44:30;;;;;;;33.50;21.45;;;;;;;11.70;100.00;100832.50;4955895;29;20496;-76
2023/05/10 00:46:56;;;;;;;32.92;22.10;;;;;;;11.68;100.00;100840.38;4956596;29;20440;-78
2023/05/10 00:49:21;;;;;;;33.38;21.80;;;;;;;11.63;100.00;100833.88;4955960;29;20063;-73
2023/05/10 00:51:46;;;;;;;34.38;21.27;;;;;;;11.34;100.00;100786.69;4955602;29;20027;-74
2023/05/10 00:54:14;;;;;;;39.17;22.20;;;;;;;11.60;100.00;100829.75;4955832;29;20106;-73
2023/05/10 00:56:40;;;;;;;35.28;21.90;;;;;;;11.57;100.00;100821.34;4956070;29;20024;-73
2023/05/10 00:59:07;;;;;;;35.25;21.88;;;;;;;11.47;100.00;100814.19;4955623;29;20035;-78
2023/05/10 01:01:33;;;;;;;36.17;22.50;;;;;;;11.53;100.00;100832.84;4954972;28;20027;-73
2023/05/10 01:03:59;;;;;;;37.50;22.85;;;;;;;11.35;100.00;100801.28;4955562;29;20543;-78
2023/05/10 01:06:24;;;;;;;38.15;24.15;;;;;;;11.45;100.00;100823.81;4938025;29;20444;-78
2023/05/10 01:08:50;;;;;;;38.65;24.05;;;;;;;11.42;100.00;100828.38;4955395;29;20024;-73
2023/05/10 01:11:15;;;;;;;38.35;24.83;;;;;;;11.27;100.00;100806.94;4955309;29;20023;-77
2023/05/10 01:13:42;;;;;;;40.63;25.83;;;;;;;11.24;100.00;100808.91;4955350;29;20027;-79
2023/05/10 01:16:08;;;;;;;40.30;26.10;;;;;;;11.36;100.00;100829.59;4955293;29;20023;-79
2023/05/10 01:18:38;;;;;;;45.95;28.30;;;;;;;11.31;100.00;100829.09;4955114;29;20031;-73
2023/05/10 01:21:15;;;;;;;42.28;27.63;;;;;;;11.33;100.00;100831.56;4955031;29;20435;-78
2023/05/10 01:23:46;;;;;;;44.83;28.70;;;;;;;11.27;100.00;100825.03;4955058;29;20041;-74
2023/05/10 01:26:45;;;;;;;43.58;27.52;;;;;;;11.31;100.00;100828.28;4955162;29;20155;-79
2023/05/10 01:29:29;;;;;;;45.25;27.48;;;;;;;11.37;100.00;100830.44;4955087;29;20087;-72
2023/05/10 01:32:18;;;;;;;42.40;29.00;;;;;;;11.43;100.00;100830.03;4955067;29;20431;-73
2023/05/10 01:35:16;;;;;;;43.92;28.27;;;;;;;11.45;100.00;100830.75;4954674;29;20118;-74
2023/05/10 01:37:46;;;;;;;42.90;28.73;;;;;;;11.44;100.00;100831.69;4949856;29;20102;-74
2023/05/10 01:40:22;;;;;;;45.30;30.83;;;;;;;11.51;100.00;100829.53;4954873;29;20023;-73
2023/05/10 01:42:53;;;;;;;42.03;28.67;;;;;;;11.52;100.00;100834.59;4954791;29;20493;-72
2023/05/10 01:45:28;;;;;;;48.42;29.15;;;;;;;11.59;100.00;100837.59;4954779;29;20555;-78
2023/05/10 01:48:07;;;;;;;45.70;29.60;;;;;;;11.65;100.00;100837.19;4954712;29;20038;-75
2023/05/10 01:50:35;;;;;;;50.55;32.17;;;;;;;11.70;100.00;100837.69;4954662;29;20023;-78
2023/05/10 01:53:02;;;;;;;50.20;30.90;;;;;;;11.72;100.00;100844.44;4954564;29;20110;-78
2023/05/10 01:55:39;;;;;;;56.90;33.78;;;;;;;11.69;100.00;100839.44;4954832;29;20038;-78
2023/05/10 01:58:09;;;;;;;51.97;33.08;;;;;;;11.75;100.00;100843.41;4954685;29;20034;-79
2023/05/10 02:00:35;;;;;;;52.58;31.67;;;;;;;11.70;100.00;100837.69;4954657;29;20059;-77
2023/05/10 02:03:05;;;;;;;58.70;34.17;;;;;;;11.73;100.00;100838.31;4954429;29;20034;-78
2023/05/10 02:05:33;;;;;;;59.90;34.10;;;;;;;11.73;100.00;100833.16;4954577;29;20031;-78
2023/05/10 02:08:00;;;;;;;53.72;32.35;;;;;;;11.82;100.00;100836.09;4954519;29;20395;-73
2023/05/10 02:10:26;;;;;;;63.60;34.13;;;;;;;11.84;100.00;100847.16;4954746;29;20058;-79
2023/05/10 02:12:53;;;;;;;65.90;35.33;;;;;;;11.51;100.00;100790.75;4956405;28;20027;-78
2023/05/10 02:15:24;;;;;;;63.28;33.17;;;;;;;11.71;100.00;100823.84;4941298;29;20510;-78
2023/05/10 02:17:50;;;;;;;62.83;35.42;;;;;;;11.90;100.00;100852.75;4958380;29;20525;-79
2023/05/10 02:20:18;;;;;;;65.90;35.45;;;;;;;11.91;100.00;100854.41;4958419;29;20027;-78
2023/05/10 02:22:44;;;;;;;64.32;35.90;;;;;;;11.96;100.00;100857.50;4958337;29;20031;-76
2023/05/10 02:25:13;;;;;;;66.95;37.65;;;;;;;11.96;100.00;100854.06;4958315;29;20129;-80
2023/05/10 02:27:39;;;;;;;66.72;37.17;;;;;;;11.82;100.00;100830.91;4941061;29;20023;-79
2023/05/10 02:30:06;;;;;;;69.65;38.28;;;;;;;11.88;100.00;100840.81;4958219;29;20431;-79
2023/05/10 02:32:33;;;;;;;71.10;38.47;;;;;;;11.98;100.00;100855.63;4940894;29;20039;-74
2023/05/10 02:35:01;;;;;;;68.10;37.97;;;;;;;11.87;100.00;100832.22;4958226;29;20019;-73
2023/05/10 02:37:27;;;;;;;70.47;40.15;;;;;;;12.00;100.00;100855.53;4958270;29;20397;-73
2023/05/10 02:39:54;;;;;;;68.03;40.25;;;;;;;12.01;100.00;100852.84;4957962;29;20114;-72
2023/05/10 02:42:25;;;;;;;69.55;39.15;;;;;;;12.03;100.00;100856.16;4958190;29;20042;-73
2023/05/10 02:44:52;;;;;;;67.82;40.78;;;;;;;12.01;100.00;100854.59;4957981;29;20019;-73
2023/05/10 02:47:18;;;;;;;66.47;39.20;;;;;;;11.98;100.00;100853.03;4958133;29;20050;-72
2023/05/10 02:49:44;;;;;;;66.45;39.55;;;;;;;11.96;100.00;100861.84;4958193;29;20023;-73
2023/05/10 02:52:14;;;;;;;59.17;37.22;;;;;;;11.94;100.00;100856.78;4957567;29;20126;-73
2023/05/10 02:54:45;;;;;;;66.68;38.35;;;;;;;11.91;100.00;100851.00;4957872;29;20058;-73
2023/05/10 02:57:19;;;;;;;66.00;38.27;;;;;;;11.91;100.00;100858.75;4957788;29;20034;-72
2023/05/10 02:59:45;;;;;;;65.63;40.05;;;;;;;11.91;100.00;100856.16;4957442;29;20306;-73
2023/05/10 03:02:12;;;;;;;70.88;41.15;;;;;;;11.78;100.00;100838.81;4956053;29;20487;-72
2023/05/10 03:04:37;;;;;;;72.93;42.58;;;;;;;11.95;100.00;100858.41;4957679;29;20059;-72
2023/05/10 03:07:03;;;;;;;75.68;44.70;;;;;;;11.92;100.00;100855.22;4957745;29;20027;-73
2023/05/10 03:09:29;;;;;;;77.40;45.28;;;;;;;11.86;100.00;100834.94;4957828;29;20498;-73
2023/05/10 03:12:31;;;;;;;79.75;45.60;;;;;;;11.99;100.00;100859.84;4957668;29;20114;-73
2023/05/10 03:15:22;;;;;;;85.78;46.85;;;;;;;12.01;100.00;100862.38;4861255;29;20037;-73
2023/05/10 03:18:10;;;;;;;81.63;47.42;;;;;;;11.97;100.00;100856.56;4860917;29;20566;-73
2023/05/10 03:20:41;;;;;;;80.82;48.20;;;;;;;11.94;100.00;100855.94;4860940;29;20402;-73
2023/05/10 03:23:29;;;;;;;85.93;49.80;;;;;;;11.95;100.00;100867.94;4861216;29;20045;-73
2023/05/10 03:25:55;;;;;;;86.10;49.28;;;;;;;11.95;100.00;100863.59;4860388;29;20076;-73
2023/05/10 03:28:21;;;;;;;84.78;49.03;;;;;;;11.83;100.00;100843.75;4860862;29;20132;-73
2023/05/10 03:30:47;;;;;;;84.32;49.13;;;;;;;11.94;100.00;100876.66;4860812;29;20501;-73
2023/05/10 03:33:13;;;;;;;86.78;48.92;;;;;;;11.82;100.00;100852.44;4860851;29;20037;-73
2023/05/10 03:35:38;;;;;;;86.72;51.63;;;;;;;11.93;100.00;100869.81;4860751;29;20506;-72
2023/05/10 03:38:04;;;;;;;81.93;47.53;;;;;;;11.94;100.00;100868.88;4860727;29;20508;-72
2023/05/10 03:40:31;;;;;;;81.90;46.90;;;;;;;11.97;100.00;100873.84;4860725;29;20033;-73
2023/05/10 03:42:57;;;;;;;90.00;47.47;;;;;;;11.92;100.00;100869.00;4860770;29;20033;-73
2023/05/10 03:45:22;;;;;;;83.28;48.53;;;;;;;11.76;100.00;100842.47;4860643;29;20049;-74
2023/05/10 03:47:48;;;;;;;77.70;46.28;;;;;;;11.90;100.00;100870.03;4860612;29;20040;-73
2023/05/10 03:50:13;;;;;;;83.55;47.25;;;;;;;11.85;100.00;100856.56;4896919;29;20036;-73
2023/05/10 03:52:41;;;;;;;78.55;43.85;;;;;;;11.97;100.00;100881.59;4956451;29;20134;-73
2023/05/10 03:55:07;;;;;;;71.53;40.75;;;;;;;11.98;100.00;100878.91;4956502;29;20039;-75
2023/05/10 03:57:33;;;;;;;67.85;39.35;;;;;;;12.02;100.00;100882.13;4956883;29;20034;-74
2023/05/10 03:59:58;;;;;;;60.70;36.60;;;;;;;12.00;100.00;100881.41;4956978;29;20031;-73
2023/05/10 04:02:23;;;;;;;60.75;36.17;;;;;;;12.01;100.00;100885.66;4956969;29;20031;-73
2023/05/10 04:04:49;;;;;;;54.88;34.22;;;;;;;11.98;100.00;100884.09;4956620;29;20027;-73
2023/05/10 04:07:14;;;;;;;57.60;33.78;;;;;;;11.90;100.00;100872.63;4956439;29;20534;-74
2023/05/10 04:09:40;;;;;;;53.45;32.95;;;;;;;11.89;100.00;100881.28;4974265;28;20478;-69
2023/05/10 04:12:06;;;;;;;53.42;32.30;;;;;;;11.96;100.00;100891.13;4976039;28;20034;-73
2023/05/10 04:14:40;;;;;;;52.80;32.00;;;;;;;11.99;100.00;100892.69;4975924;28;20030;-76
2023/05/10 04:17:06;;;;;;;50.72;30.25;;;;;;;11.98;100.00;100898.78;4975644;28;20031;-75
2023/05/10 04:19:31;;;;;;;53.47;30.65;;;;;;;11.97;100.00;100894.53;4975512;28;20073;-73
2023/05/10 04:21:57;;;;;;;50.10;29.67;;;;;;;11.98;100.00;100896.19;4975582;28;20050;-73
2023/05/10 04:24:22;;;;;;;47.30;29.10;;;;;;;11.84;100.00;100875.63;4975601;28;20019;-73
2023/05/10 04:26:48;;;;;;;52.15;29.13;;;;;;;11.96;100.00;100895.47;4975599;28;20443;-73
2023/05/10 04:29:13;;;;;;;53.42;30.15;;;;;;;11.87;100.00;100880.56;4958147;28;20070;-74
2023/05/10 04:31:38;;;;;;;57.35;31.15;;;;;;;11.89;100.00;100883.88;4975520;28;20027;-73
2023/05/10 04:34:04;;;;;;;51.42;32.00;;;;;;;11.86;100.00;100884.91;4975427;28;20019;-73
2023/05/10 04:36:29;;;;;;;55.17;31.90;;;;;;;11.93;100.00;100906.03;4975363;28;20030;-72
2023/05/10 04:38:54;;;;;;;56.75;32.78;;;;;;;11.87;100.00;100903.88;4975166;28;20455;-73
2023/05/10 04:41:20;;;;;;;58.08;33.08;;;;;;;11.86;100.00;100908.22;4975070;28;20039;-73
2023/05/10 04:43:46;;;;;;;53.17;31.25;;;;;;;11.83;100.00;100905.00;4975056;28;20029;-74
2023/05/10 04:46:11;;;;;;;52.33;30.77;;;;;;;11.80;100.00;100907.78;4975219;28;20035;-72
2023/05/10 04:48:36;;;;;;;45.22;27.15;;;;;;;11.61;100.00;100892.66;4974980;28;20459;-72
2023/05/10 04:51:03;;;;;;;50.63;29.08;;;;;;;11.77;100.00;100911.38;4975077;28;20065;-74
2023/05/10 04:53:29;;;;;;;45.90;28.73;;;;;;;11.65;100.00;100894.09;4974828;28;20553;-75
2023/05/10 04:55:54;;;;;;;46.55;29.48;;;;;;;11.77;100.00;100912.19;4974855;28;20031;-77
2023/05/10 04:58:20;;;;;;;46.10;28.35;;;;;;;11.78;100.00;100913.84;4974915;28;20480;-74
2023/05/10 05:00:45;;;;;;;44.28;27.08;;;;;;;11.52;100.00;100878.56;4957124;28;20097;-73
2023/05/10 05:03:10;;;;;;;42.78;27.15;;;;;;;11.76;100.00;100909.72;4974900;28;20026;-73
2023/05/10 05:05:36;;;;;;;39.38;25.55;;;;;;;11.79;100.00;100919.84;4974868;28;20073;-73
2023/05/10 05:08:01;;;;;;;40.30;26.17;;;;;;;11.81;100.00;100920.63;4974775;28;20030;-79
2023/05/10 05:10:27;;;;;;;43.20;26.67;;;;;;;11.82;100.00;100918.88;4974817;28;20030;-78
2023/05/10 05:12:52;;;;;;;42.05;23.70;;;;;;;11.83;100.00;100920.53;4957014;28;20050;-79
2023/05/10 05:15:17;;;;;;;41.45;26.02;;;;;;;11.85;100.00;100921.25;4974774;28;20035;-76
2023/05/10 05:17:43;;;;;;;41.45;25.73;;;;;;;11.77;100.00;100914.78;4974645;28;20031;-75
2023/05/10 05:20:10;;;;;;;39.67;25.80;;;;;;;11.89;100.00;100920.09;4974553;28;20378;-73
2023/05/10 05:22:36;;;;;;;34.75;24.65;;;;;;;11.96;100.00;100926.53;4974272;28;20031;-73
2023/05/10 05:25:03;;;;;;;40.15;25.67;;;;;;;11.99;100.00;100926.31;4974494;28;20110;-73
2023/05/10 05:27:28;;;;;;;40.88;27.27;;;;;;;12.08;100.00;100933.47;4974365;28;20077;-72
2023/05/10 05:29:55;;;;;;;40.88;26.45;;;;;;;12.16;100.00;100933.78;4974315;28;20043;-73
2023/05/10 05:32:20;;;;;;;40.45;25.63;;;;;;;12.25;100.00;100933.16;4974221;28;20023;-74
2023/05/10 05:34:45;;;;;;;42.45;26.42;;;;;;;12.11;100.00;100899.63;4974298;28;20026;-72
2023/05/10 05:37:21;;;;;;;39.90;26.90;;;;;;;12.43;100.00;100930.25;4974129;28;20027;-74
2023/05/10 05:39:47;;;;;;;38.10;25.35;;;;;;;12.46;100.00;100941.22;4974100;28;20537;-74
2023/05/10 05:42:13;;;;;;;38.88;26.25;;;;;;;12.52;100.00;100937.38;4974168;28;20104;-74
2023/05/10 05:44:39;;;;;;;38.60;25.27;;;;;;;12.55;100.00;100937.16;4974353;28;20030;-76
2023/05/10 05:47:05;;;;;;;40.15;26.20;;;;;;;12.67;100.00;100932.88;4973800;28;20445;-74
2023/05/10 05:49:30;;;;;;;37.08;24.73;;;;;;;12.71;100.00;100940.34;4974448;28;20110;-74
2023/05/10 05:52:00;;;;;;;36.67;26.00;;;;;;;12.70;100.00;100943.88;4973991;28;20470;-75
2023/05/10 05:54:25;;;;;;;33.22;24.98;;;;;;;12.62;100.00;100939.22;4974037;28;20946;-74
2023/05/10 05:56:54;;;;;;;36.70;24.95;;;;;;;12.50;100.00;100905.59;4973852;28;20034;-74
2023/05/10 05:59:19;;;;;;;35.67;25.15;;;;;;;12.82;100.00;100942.19;4973882;28;20031;-74
2023/05/10 06:01:45;;;;;;;36.75;25.65;;;;;;;12.91;100.00;100936.34;4973857;28;20034;-74
2023/05/10 06:04:10;;;;;;;37.40;25.83;;;;;;;13.04;100.00;100946.66;4974008;28;20027;-73
2023/05/10 06:06:36;;;;;;;35.38;25.52;;;;;;;13.15;100.00;100951.91;4974012;28;20023;-74
2023/05/10 06:09:01;;;;;;;35.88;25.40;;;;;;;13.12;100.00;100934.00;4973853;28;20031;-74
2023/05/10 06:11:26;;;;;;;34.78;24.23;;;;;;;13.18;100.00;100952.53;4973781;28;20489;-75
2023/05/10 06:13:52;;;;;;;37.67;24.50;;;;;;;13.16;100.00;100951.78;4973802;28;20085;-77
2023/05/10 06:16:17;;;;;;;35.88;25.50;;;;;;;12.95;100.00;100940.38;4973861;28;20034;-75
2023/05/10 06:18:43;;;;;;;35.88;25.95;;;;;;;12.96;100.00;100967.94;4973824;28;20113;-73
2023/05/10 06:21:09;;;;;;;33.08;25.45;;;;;;;12.89;100.00;100966.75;4973957;28;20030;-75
2023/05/10 06:23:35;;;;;;;35.45;24.35;;;;;;;12.90;100.00;100974.41;4973528;28;20089;-76
2023/05/10 06:26:00;;;;;;;32.55;24.27;;;;;;;12.84;100.00;100966.22;4973793;28;20027;-74
2023/05/10 06:28:26;;;;;;;36.03;24.95;;;;;;;12.90;100.00;100976.19;4973518;28;20382;-74
2023/05/10 06:30:51;;;;;;;39.80;25.75;;;;;;;12.92;100.00;100972.53;4973792;28;20027;-73
2023/05/10 06:33:17;;;;;;;36.50;25.55;;;;;;;12.99;100.00;100972.09;4973728;28;20482;-73
2023/05/10 06:35:42;;;;;;;36.25;25.58;;;;;;;13.03;100.00;100976.94;4973637;28;20031;-76
2023/05/10 06:38:07;;;;;;;39.20;26.45;;;;;;;12.94;100.00;100949.09;4952413;28;20043;-74
2023/05/10 06:40:33;;;;;;;36.40;24.95;;;;;;;13.07;100.00;100977.56;4954786;29;20032;-71
2023/05/10 06:42:59;;;;;;;37.42;24.00;;;;;;;13.12;100.00;100980.66;4953728;29;20040;-72
2023/05/10 06:45:27;;;;;;;33.78;24.20;;;;;;;13.24;100.00;100984.16;4954161;29;20110;-74
2023/05/10 06:47:52;;;;;;;35.65;24.60;;;;;;;13.39;100.00;100989.09;4954255;29;20491;-76
2023/05/10 06:50:18;;;;;;;38.20;26.05;;;;;;;13.30;100.00;100937.88;4954060;29;20108;-79
2023/05/10 06:52:43;;;;;;;37.50;25.70;;;;;;;13.82;100.00;100987.72;4953800;29;20047;-77
2023/05/10 06:55:09;;;;;;;38.38;24.55;;;;;;;14.05;100.00;100995.44;4953972;29;20030;-73
2023/05/10 06:57:34;;;;;;;35.75;24.15;;;;;;;14.13;100.00;100994.06;4953803;29;20039;-76
2023/05/10 07:00:00;;;;;;;35.72;24.00;;;;;;;14.07;100.00;100985.78;4955756;28;20039;-75
2023/05/10 07:02:25;;;;;;;36.65;26.13;;;;;;;14.10;100.00;100987.31;4957771;29;20374;-75
2023/05/10 07:04:51;;;;;;;35.13;25.58;;;;;;;14.02;100.00;100995.69;4957682;29;20090;-75
2023/05/10 07:07:17;;;;;;;39.08;26.25;;;;;;;13.89;100.00;101004.50;4957737;29;20023;-77
2023/05/10 07:09:42;;;;;;;37.20;25.60;;;;;;;13.71;100.00;101002.31;4957429;29;20102;-76
2023/05/10 07:12:08;;;;;;;34.22;24.65;;;;;;;13.59;100.00;101015.38;4957453;29;20027;-75
2023/05/10 07:14:33;;;;;;;37.22;27.02;;;;;;;13.41;100.00;101009.72;4956118;28;20110;-74
2023/05/10 07:16:58;;;;;;;40.53;26.98;;;;;;;13.19;100.00;101000.91;4957644;29;20110;-80
2023/05/10 07:19:23;;;;;;;40.63;28.02;;;;;;;13.15;100.00;101008.97;4957416;29;20102;-73
2023/05/10 07:21:50;;;;;;;39.22;28.55;;;;;;;13.10;100.00;101019.66;4957325;29;20490;-75
2023/05/10 07:24:16;;;;;;;38.40;27.58;;;;;;;13.02;100.00;101021.13;4957230;29;20038;-73
2023/05/10 07:26:41;;;;;;;37.00;27.48;;;;;;;12.96;100.00;101027.56;4957006;29;20024;-78
2023/05/10 07:29:06;;;;;;;37.88;26.83;;;;;;;12.59;100.00;100982.66;4957257;29;20104;-75
2023/05/10 07:31:32;;;;;;;40.83;28.48;;;;;;;12.81;100.00;101026.88;4957237;29;20098;-76
2023/05/10 07:33:57;;;;;;;36.10;26.92;;;;;;;12.73;100.00;101020.56;4957231;29;20463;-73
2023/05/10 07:36:22;;;;;;;37.78;26.10;;;;;;;12.75;100.00;101035.06;4957130;29;20023;-75
2023/05/10 07:38:49;;;;;;;37.90;26.70;;;;;;;12.56;100.00;101003.56;4956960;29;20447;-73
2023/05/10 07:41:14;;;;;;;37.40;26.58;;;;;;;12.77;100.00;101024.59;4956952;29;20019;-75
2023/05/10 07:43:40;;;;;;;37.00;26.15;;;;;;;12.87;100.00;101028.19;4957106;29;20056;-73
2023/05/10 07:46:05;;;;;;;38.22;27.65;;;;;;;12.94;100.00;101032.03;4956819;29;20030;-77
2023/05/10 07:48:31;;;;;;;35.95;25.10;;;;;;;12.94;100.00;101021.66;4956968;29;20054;-74
2023/05/10 07:50:56;;;;;;;36.53;25.63;;;;;;;13.14;100.00;101039.25;4956867;29;20027;-75
2023/05/10 07:53:21;;;;;;;35.28;24.70;;;;;;;13.10;100.00;101018.84;4956684;29;20384;-75
2023/05/10 07:55:51;;;;;;;33.47;24.65;;;;;;;13.16;100.00;101020.97;4956618;29;20489;-75
2023/05/10 07:58:17;;;;;;;31.92;23.48;;;;;;;13.30;100.00;101036.44;4956727;29;20118;-82
2023/05/10 08:00:42;;;;;;;34.90;24.38;;;;;;;13.30;100.00;101033.84;4956639;29;20098;-81
2023/05/10 08:03:07;;;;;;;31.20;23.10;;;;;;;13.38;100.00;101054.06;4956873;29;20534;-82
2023/05/10 08:05:32;;;;;;;29.52;20.95;;;;;;;13.19;100.00;101034.63;4947232;28;20082;-79
2023/05/10 08:07:59;;;;;;;25.17;19.48;;;;;;;13.29;100.00;101062.50;4938111;29;20479;-82
2023/05/10 08:10:25;;;;;;;27.42;19.65;;;;;;;13.21;100.00;101068.22;4937137;29;20031;-81
2023/05/10 08:12:50;;;;;;;25.15;19.90;;;;;;;13.18;100.00;101064.03;4937333;29;20476;-80
2023/05/10 08:15:15;;;;;;;28.23;20.33;;;;;;;13.18;100.00;101064.03;4950648;28;20031;-82
2023/05/10 08:17:41;;;;;;;29.33;21.13;;;;;;;13.26;100.00;101065.28;4956966;29;20027;-80
2023/05/10 08:20:07;;;;;;;24.02;19.27;;;;;;;13.42;100.00;101066.69;4956332;29;20031;-77
2023/05/10 08:22:33;;;;;;;25.02;20.10;;;;;;;13.60;100.00;101069.75;4956251;29;20070;-80
2023/05/10 08:24:58;;;;;;;27.85;19.35;;;;;;;13.77;100.00;101066.78;4956165;29;20030;-82
2023/05/10 08:27:23;;;;;;;27.00;18.45;;;;;;;13.94;100.00;101080.28;4956253;29;20027;-80
2023/05/10 08:29:49;;;;;;;23.55;17.35;;;;;;;14.01;100.00;101084.09;4956078;29;20019;-82
2023/05/10 08:32:14;;;;;;;22.05;16.90;;;;;;;14.07;100.00;101071.50;4955984;29;20110;-82
2023/05/10 08:34:39;;;;;;;22.83;17.63;;;;;;;14.24;100.00;101059.81;4955964;29;20069;-82
2023/05/10 08:37:05;;;;;;;21.52;16.88;;;;;;;14.71;100.00;101088.41;4956047;29;20030;-80
2023/05/10 08:39:34;;;;;;;19.13;15.63;;;;;;;14.77;100.00;101067.97;4955920;29;20479;-76
2023/05/10 08:42:02;;;;;;;19.08;15.35;;;;;;;15.16;100.00;101092.69;4955774;29;20514;-77
2023/05/10 08:44:28;;;;;;;19.90;15.05;;;;;;;15.38;100.00;101091.00;4955673;29;20166;-85
2023/05/10 08:46:55;;;;;;;20.25;15.75;;;;;;;15.40;99.27;101092.53;4955800;29;20138;-85
2023/05/10 08:49:21;;;;;;;21.90;14.35;;;;;;;15.12;99.07;101070.44;4955891;29;20114;-81
2023/05/10 08:51:56;;;;;;;19.00;14.20;;;;;;;15.26;100.00;101102.38;4955552;29;20038;-84
2023/05/10 08:54:22;;;;;;;15.82;13.15;;;;;;;15.11;100.00;101084.41;4955680;29;20110;-82
2023/05/10 08:56:48;;;;;;;19.48;14.38;;;;;;;15.04;100.00;101090.19;4955706;29;20041;-85
2023/05/10 08:59:14;;;;;;;17.88;13.00;;;;;;;14.95;100.00;101093.53;4955425;29;20471;-80
2023/05/10 09:01:40;;;;;;;17.05;12.57;;;;;;;14.69;100.00;101079.91;4955610;29;20042;-87
2023/05/10 09:04:06;;;;;;;19.30;13.38;;;;;;;14.64;100.00;101078.47;4958917;29;20352;-89
2023/05/10 09:06:32;;;;;;;19.30;12.93;;;;;;;14.73;100.00;101102.13;4956170;29;20034;-79
2023/05/10 09:08:58;;;;;;;15.98;12.90;;;;;;;14.44;100.00;101071.31;4955711;29;20134;-83
2023/05/10 09:11:24;;;;;;;15.65;12.77;;;;;;;14.53;100.00;101107.03;4955234;29;20063;-82
2023/05/10 09:13:52;;;;;;;16.75;13.27;;;;;;;14.48;100.00;101109.19;4955275;29;20070;-82
2023/05/10 09:16:17;;;;;;;16.63;12.95;;;;;;;14.43;100.00;101113.03;4955386;29;20023;-88
2023/05/10 09:18:42;;;;;;;20.55;13.85;;;;;;;14.44;100.00;101118.09;4955118;29;20041;-89
2023/05/10 09:21:09;;;;;;;18.20;14.15;;;;;;;14.20;100.00;101086.97;4955657;28;20023;-79
2023/05/10 09:23:34;;;;;;;16.23;13.93;;;;;;;14.35;100.00;101117.03;4954813;29;20458;-80
2023/05/10 09:26:04;;;;;;;15.27;12.63;;;;;;;14.21;100.00;101099.03;4955137;29;20054;-77
2023/05/10 09:28:54;;;;;;;17.00;12.82;;;;;;;14.22;100.00;101118.03;4955324;29;20054;-76
2023/05/10 09:31:19;;;;;;;16.33;12.48;;;;;;;14.00;100.00;101096.25;4877318;29;20482;-77
2023/05/10 09:33:46;;;;;;;16.73;12.75;;;;;;;13.96;100.00;101100.00;4877208;29;20077;-76
2023/05/10 09:36:13;;;;;;;15.85;12.13;;;;;;;13.87;100.00;101097.25;4877210;29;20486;-75
2023/05/10 09:38:47;;;;;;;16.75;12.13;;;;;;;14.04;100.00;101128.81;4877165;29;20036;-76
2023/05/10 09:41:20;;;;;;;16.33;12.50;;;;;;;13.72;100.00;101078.41;4877118;29;20036;-76
2023/05/10 09:43:46;;;;;;;14.82;11.35;;;;;;;13.93;100.00;101095.03;4877113;29;20029;-77
2023/05/10 09:46:11;;;;;;;15.20;11.05;;;;;;;14.27;100.00;101132.34;4877034;29;20424;-76
2023/05/10 09:48:45;;;;;;;14.15;10.70;;;;;;;14.45;100.00;101135.38;4877279;29;20068;-77
2023/05/10 09:51:10;;;;;;;14.93;10.95;;;;;;;14.52;100.00;101133.16;4877394;29;20040;-77
2023/05/10 09:53:36;;;;;;;14.02;10.60;;;;;;;14.63;100.00;101136.59;4877023;29;20044;-74
2023/05/10 09:56:01;;;;;;;15.02;11.65;;;;;;;14.52;100.00;101083.78;4877016;29;20053;-76
2023/05/10 09:58:27;;;;;;;13.98;10.88;;;;;;;15.19;100.00;101136.66;4877186;29;20037;-77
2023/05/10 10:00:53;;;;;;;12.82;9.75;;;;;;;15.36;100.00;101135.34;4876929;29;20438;-77
2023/05/10 10:03:21;;;;;;;12.35;9.75;;;;;;;15.30;99.47;101117.59;4875700;29;20037;-76
2023/05/10 10:05:48;;;;;;;11.75;9.27;;;;;;;15.68;99.23;101145.03;4877489;29;20585;-76
2023/05/10 10:08:15;;;;;;;13.23;9.48;;;;;;;15.62;97.14;101094.28;4914120;29;20476;-76
2023/05/10 10:10:41;;;;;;;13.02;9.00;;;;;;;15.91;95.69;101111.94;4953398;28;20031;-75
2023/05/10 10:13:07;;;;;;;12.43;9.02;;;;;;;16.21;94.86;101135.50;4955263;29;20092;-76
2023/05/10 10:15:34;;;;;;;11.63;9.00;;;;;;;16.35;95.65;101122.16;4954666;29;20082;-78
2023/05/10 10:18:00;;;;;;;12.88;8.35;;;;;;;16.54;92.81;101128.47;4954565;29;20031;-80
2023/05/10 10:20:26;;;;;;;10.57;8.13;;;;;;;16.53;91.27;101112.00;4954533;29;20027;-78
2023/05/10 10:22:52;;;;;;;10.95;8.88;;;;;;;16.80;92.97;101142.78;4954379;29;20030;-77
2023/05/10 10:25:21;;;;;;;11.95;8.43;;;;;;;16.56;90.33;101113.53;4954425;29;20027;-82
2023/05/10 10:27:53;;;;;;;12.10;7.97;;;;;;;16.56;91.61;101140.41;4954361;29;20110;-83
2023/05/10 10:30:42;;;;;;;9.63;8.00;;;;;;;16.33;93.66;101146.72;4954786;29;20058;-77
2023/05/10 10:33:45;;;;;;;12.32;9.10;;;;;;;15.91;93.89;101157.03;4954996;28;20028;-77
2023/05/10 10:36:12;;;;;;;14.75;11.80;;;;;;;15.36;94.67;101160.56;4958144;29;20406;-76
2023/05/10 10:39:01;;;;;;;15.90;12.00;;;;;;;15.02;96.58;101121.53;4958294;29;20062;-76
2023/05/10 10:41:48;;;;;;;16.25;11.05;;;;;;;14.85;97.95;101128.03;4958301;29;20038;-75
2023/05/10 10:44:25;;;;;;;15.43;11.73;;;;;;;14.90;99.55;101151.91;4957952;29;20463;-75
2023/05/10 10:47:22;;;;;;;18.35;12.82;;;;;;;14.80;100.00;101147.50;4958123;29;20479;-89
2023/05/10 10:50:01;;;;;;;18.48;14.50;;;;;;;14.70;100.00;101143.94;4940749;29;20023;-92
2023/05/10 10:53:10;;;;;;;19.52;14.30;;;;;;;14.93;100.00;101149.06;4957944;29;20047;-90
2023/05/10 10:55:45;;;;;;;20.25;13.45;;;;;;;14.76;100.00;101104.50;4879984;29;20060;-90
2023/05/10 10:58:30;;;;;;;17.83;13.15;;;;;;;15.05;100.00;101133.47;4879965;29;20037;-87
2023/05/10 11:01:13;;;;;;;20.27;13.65;;;;;;;15.20;100.00;101153.91;4880165;29;20047;-91
2023/05/10 11:03:39;;;;;;;19.42;14.50;;;;;;;15.36;100.00;101143.16;4880038;29;20040;-90
2023/05/10 11:06:05;;;;;;;20.55;13.68;;;;;;;15.68;100.00;101156.28;4879909;29;20042;-88